If you wish to contribute or participate in the discussions about articles you are invited to join SKYbrary as a registered user

 Actions

Bangor International

From SKYbrary Wiki

KBGR
Airport
ICAO: KBGR
Summary
Name Bangor International
Region North America
Territory United States US.gif
Location Bangor, Maine
Serving
Coordinates 44° 48' 27.00" N, 68° 49' 41.00" W
Runways
Designator Length Width Surface ROPS
15/33 3487 m11,440.289 ft
61 m200.131 ft
ASP yes/yes


METAR
Observation KBGR 190253Z 35004KT 10SM CLR M04/M15 A3026 RMK AO2 SLP250 T10441150 51020
Station Bangor, Bangor International Airport
Date/Time 19 March 2019 02:53:00
Wind direction 350°
Wind speed 04 kts
Lowest cloud amount n/a
Temperature
Dew point
Humidity 43%
QNH hPa
Weather condition n/a

CFIT
Tag(s) Altimeter Temperature Error Correction
WX
Tag(s) Cumulonimbus

Bangor International Airport

ICAO: KBGR IATA: BGR

Description

International airport serving Bangor, Maine.

Climatology

Humid Continental climate (Köppen climate classification Dfb) - Variable weather patterns and a large seasonal temperature variance. Summers are often warm and humid with frequent thunderstorms and winters can be very cold with frequent snowfall and persistent snow cover.

Maps

Terrain

Loading map...

Airport Layout

Loading map...


Accidents & Serious Incidents at or in vicinity of KBGR

None on SKYbrary